Uva, Wyoming
Current Conditions -  °F | °C
As of 7:15 AM on Friday 19 Dec 2014 (Local Time) from KGUR Reporting Station
Clear Clear  
Wind Chill: 12°   Ceiling: Unl
Heat Index: 22°   Visibility: 10mi
Dew Point: 17°   Wind: 8mph
Humidity: 83%   Direction: 310°NW
Pressure: 30.04"   Gusts: NA
Location:  42.0178°N, 105.098°W
Report Text: KGUR 191415Z AUTO 31007KT 10SM CLR M06/M08 A3004 RMK AO2 T10581082 PWINO
Loading
Personal Weather Stations






























Interactive Weather Map New forecast layout! Learn more

10-Day Weather Forecast

Advertisements
Track Severe Weather on mobile